createdAt,value
2018-12-09T00:00:10.584Z,27.67
2018-12-09T00:02:39.308Z,27.30
2018-12-09T00:05:09.029Z,26.80
2018-12-09T00:07:37.782Z,25.83
2018-12-09T00:10:06.598Z,25.67
2018-12-09T00:12:35.221Z,24.73
2018-12-09T00:15:04.833Z,22.90
2018-12-09T00:17:34.375Z,23.03
2018-12-09T00:20:03.258Z,21.43
2018-12-09T00:22:32.695Z,21.50
2018-12-09T00:25:01.550Z,19.63
2018-12-09T00:27:30.058Z,21.80
2018-12-09T00:29:59.130Z,21.30
2018-12-09T00:32:27.681Z,20.53
2018-12-09T00:34:56.252Z,21.53
2018-12-09T00:37:24.829Z,21.10
2018-12-09T00:39:53.380Z,21.90
2018-12-09T00:42:22.026Z,21.40
2018-12-09T00:44:50.621Z,22.97
2018-12-09T00:47:19.608Z,21.23
2018-12-09T00:49:48.275Z,19.87
2018-12-09T00:52:16.763Z,17.93
2018-12-09T00:54:45.579Z,17.23
2018-12-09T00:57:14.367Z,16.30
2018-12-09T00:59:43.356Z,17.77
2018-12-09T01:02:11.933Z,17.87
2018-12-09T01:04:40.623Z,16.07
2018-12-09T01:07:09.976Z,16.33
2018-12-09T01:09:38.500Z,15.57
2018-12-09T01:12:07.089Z,14.60
2018-12-09T01:14:35.662Z,16.13
2018-12-09T01:17:04.460Z,15.40
2018-12-09T01:19:33.218Z,14.47
2018-12-09T01:22:01.790Z,13.70
2018-12-09T01:24:30.974Z,13.83
2018-12-09T01:26:59.500Z,14.90
2018-12-09T01:29:28.038Z,13.90
2018-12-09T01:31:56.709Z,11.97
2018-12-09T01:34:25.205Z,12.80
2018-12-09T01:36:53.872Z,11.63
2018-12-09T01:39:22.383Z,13.10
2018-12-09T01:41:50.967Z,12.60
2018-12-09T01:44:19.784Z,12.37
2018-12-09T01:46:48.378Z,12.67
2018-12-09T01:49:17.449Z,18.10
2018-12-09T01:51:46.081Z,14.87
2018-12-09T01:54:16.578Z,15.20
2018-12-09T01:56:45.398Z,13.93
2018-12-09T01:59:14.044Z,12.67
2018-12-09T02:01:42.769Z,12.83
2018-12-09T02:04:11.701Z,10.90
2018-12-09T02:06:40.401Z,12.60
2018-12-09T02:09:10.062Z,11.93
2018-12-09T02:11:38.791Z,11.80
2018-12-09T02:14:07.308Z,11.97
2018-12-09T02:16:36.113Z,10.90
2018-12-09T02:19:19.190Z,10.53
2018-12-09T02:21:48.436Z,9.70
2018-12-09T02:24:17.407Z,9.77
2018-12-09T02:26:46.425Z,9.60
2018-12-09T02:29:15.169Z,9.03
2018-12-09T02:31:44.409Z,8.87
2018-12-09T02:34:12.948Z,10.60
2018-12-09T02:36:41.487Z,9.80
2018-12-09T02:39:11.996Z,9.03
2018-12-09T02:41:40.591Z,8.17
2018-12-09T02:44:09.353Z,9.27
2018-12-09T02:46:39.105Z,9.37
2018-12-09T02:49:07.953Z,8.80
2018-12-09T02:51:36.821Z,8.67
2018-12-09T02:54:05.495Z,5.53
2018-12-09T02:56:34.115Z,5.43
2018-12-09T02:59:02.673Z,4.30
2018-12-09T03:01:31.291Z,3.80
2018-12-09T03:03:59.771Z,2.73
2018-12-09T03:06:28.527Z,2.90
2018-12-09T03:08:57.182Z,2.83
2018-12-09T03:11:25.718Z,2.57
2018-12-09T03:13:54.215Z,2.70
2018-12-09T03:16:22.731Z,2.63
2018-12-09T03:18:51.262Z,3.07
2018-12-09T03:21:20.724Z,2.30
2018-12-09T03:23:49.216Z,2.20
2018-12-09T03:26:17.912Z,2.03
2018-12-09T03:28:50.018Z,2.20
2018-12-09T03:31:18.558Z,2.07
2018-12-09T03:33:47.114Z,2.60
2018-12-09T03:36:15.665Z,2.20
2018-12-09T03:38:44.474Z,2.43
2018-12-09T03:41:13.939Z,2.13
2018-12-09T03:43:42.638Z,1.93
2018-12-09T03:46:11.380Z,1.83
2018-12-09T03:48:39.879Z,1.90
2018-12-09T03:51:08.422Z,1.73
2018-12-09T03:53:37.061Z,2.20
2018-12-09T03:56:05.635Z,2.33
2018-12-09T03:58:34.147Z,2.40
2018-12-09T04:01:02.915Z,2.43
2018-12-09T04:03:31.392Z,2.17
2018-12-09T04:06:00.152Z,2.20
2018-12-09T04:08:28.971Z,2.00
2018-12-09T04:10:57.505Z,2.10
2018-12-09T04:13:26.029Z,1.80
2018-12-09T04:15:54.969Z,1.90
2018-12-09T04:18:23.540Z,2.07
2018-12-09T04:20:52.811Z,2.00
2018-12-09T04:23:21.340Z,2.03
2018-12-09T04:25:49.820Z,2.10
2018-12-09T04:28:18.322Z,2.20
2018-12-09T04:30:46.833Z,2.50
2018-12-09T04:33:15.328Z,2.27
2018-12-09T04:35:43.876Z,2.27
2018-12-09T04:38:12.411Z,2.23
2018-12-09T04:40:40.985Z,2.13
2018-12-09T04:43:09.581Z,1.97
2018-12-09T04:45:38.312Z,2.40
2018-12-09T04:48:07.018Z,2.17
2018-12-09T04:50:35.873Z,2.37
2018-12-09T04:53:04.352Z,4.03
2018-12-09T04:55:32.989Z,3.23
2018-12-09T04:58:01.554Z,2.50
2018-12-09T05:00:41.606Z,3.00
2018-12-09T05:03:10.229Z,2.73
2018-12-09T05:05:40.427Z,2.53
2018-12-09T05:08:08.939Z,2.50
2018-12-09T05:10:38.808Z,2.50
2018-12-09T05:13:07.357Z,2.90
2018-12-09T05:15:35.858Z,2.97
2018-12-09T05:18:04.403Z,3.10
2018-12-09T05:20:32.964Z,4.57
2018-12-09T05:23:02.098Z,4.10
2018-12-09T05:25:31.084Z,3.07
2018-12-09T05:28:00.088Z,2.97
2018-12-09T05:30:28.924Z,2.67
2018-12-09T05:32:57.363Z,2.80
2018-12-09T05:35:25.811Z,3.00
2018-12-09T05:37:54.388Z,2.60
2018-12-09T05:40:22.939Z,2.87
2018-12-09T05:42:51.516Z,2.73
2018-12-09T05:45:20.132Z,2.90
2018-12-09T05:47:48.754Z,3.63
2018-12-09T05:50:17.357Z,3.10
2018-12-09T05:52:45.956Z,4.67
2018-12-09T05:55:14.558Z,3.47
2018-12-09T05:57:44.725Z,3.70
2018-12-09T06:00:13.410Z,5.40
2018-12-09T06:02:52.574Z,2.80
2018-12-09T06:05:21.441Z,1.90
2018-12-09T06:07:50.410Z,1.97
2018-12-09T06:10:19.145Z,2.33
2018-12-09T06:12:47.692Z,2.33
2018-12-09T06:15:16.192Z,2.30
2018-12-09T06:17:44.744Z,2.93
2018-12-09T06:20:13.576Z,3.70
2018-12-09T06:22:42.161Z,4.83
2018-12-09T06:25:10.643Z,7.47
2018-12-09T06:27:39.109Z,6.43
2018-12-09T06:30:10.394Z,5.93
2018-12-09T06:32:39.140Z,4.50
2018-12-09T06:35:08.505Z,5.37
2018-12-09T06:37:37.063Z,5.00
2018-12-09T06:40:06.424Z,7.10
2018-12-09T06:42:35.358Z,7.30
2018-12-09T06:45:04.430Z,6.10
2018-12-09T06:47:32.963Z,9.83
2018-12-09T06:50:01.634Z,10.67
2018-12-09T06:52:30.439Z,7.63
2018-12-09T06:54:59.136Z,7.60
2018-12-09T06:57:27.610Z,7.37
2018-12-09T06:59:56.067Z,7.57
2018-12-09T07:02:24.571Z,9.50
2018-12-09T07:04:53.183Z,7.93
2018-12-09T07:07:22.051Z,7.77
2018-12-09T07:09:50.776Z,9.40
2018-12-09T07:12:19.310Z,10.27
2018-12-09T07:14:47.790Z,12.63
2018-12-09T07:17:16.365Z,12.93
2018-12-09T07:19:45.640Z,12.20
2018-12-09T07:22:14.175Z,12.70
2018-12-09T07:24:42.652Z,12.73
2018-12-09T07:27:11.132Z,12.73
2018-12-09T07:29:39.630Z,11.47
2018-12-09T07:32:08.244Z,9.37
2018-12-09T07:34:36.860Z,8.70
2018-12-09T07:37:05.330Z,9.77
2018-12-09T07:39:33.872Z,10.27
2018-12-09T07:42:02.332Z,8.63
2018-12-09T07:44:30.836Z,10.13
2018-12-09T07:46:59.328Z,14.07
2018-12-09T07:49:28.045Z,14.13
2018-12-09T07:51:56.557Z,8.73
2018-12-09T07:54:25.028Z,10.13
2018-12-09T07:56:53.651Z,13.03
2018-12-09T07:59:22.250Z,20.10
2018-12-09T08:01:50.699Z,12.53
2018-12-09T08:04:19.298Z,11.53
2018-12-09T08:06:48.007Z,13.80
2018-12-09T08:09:16.523Z,18.83
2018-12-09T08:11:45.028Z,19.57
2018-12-09T08:14:13.631Z,17.27
2018-12-09T08:16:42.090Z,6.00
2018-12-09T08:19:10.581Z,3.90
2018-12-09T08:21:39.049Z,3.67
2018-12-09T08:24:07.534Z,3.43
2018-12-09T08:26:36.011Z,2.73
2018-12-09T08:29:04.838Z,3.70
2018-12-09T08:31:33.353Z,3.93
2018-12-09T08:34:01.930Z,4.37
2018-12-09T08:36:30.551Z,3.57
2018-12-09T08:38:59.133Z,3.07
2018-12-09T08:41:27.936Z,3.20
2018-12-09T08:43:56.480Z,2.60
2018-12-09T08:46:25.005Z,2.53
2018-12-09T08:48:53.791Z,2.33
2018-12-09T08:51:22.280Z,2.47
2018-12-09T08:53:50.968Z,2.43
2018-12-09T08:56:19.427Z,2.80
2018-12-09T08:58:47.957Z,3.20
2018-12-09T09:01:16.485Z,3.53
2018-12-09T09:03:44.947Z,3.37
2018-12-09T09:06:13.456Z,2.77
2018-12-09T09:08:41.932Z,3.10
2018-12-09T09:11:10.429Z,3.27
2018-12-09T09:13:38.935Z,2.83
2018-12-09T09:16:07.431Z,2.37
2018-12-09T09:18:35.891Z,3.13
2018-12-09T09:21:04.806Z,3.17
2018-12-09T09:23:33.453Z,2.83
2018-12-09T09:26:02.247Z,2.83
2018-12-09T09:28:30.981Z,2.87
2018-12-09T09:30:59.504Z,3.27
2018-12-09T09:33:27.990Z,2.40
2018-12-09T09:35:56.509Z,3.00
2018-12-09T09:38:25.044Z,3.80
2018-12-09T09:40:53.497Z,2.60
2018-12-09T09:43:21.976Z,2.40
2018-12-09T09:45:50.509Z,2.83
2018-12-09T09:48:19.182Z,2.80
2018-12-09T09:50:47.649Z,2.63
2018-12-09T09:53:16.140Z,2.80
2018-12-09T09:55:44.761Z,2.70
2018-12-09T09:58:13.224Z,3.07
2018-12-09T10:00:41.794Z,3.50
2018-12-09T10:03:10.467Z,2.60
2018-12-09T10:05:38.986Z,2.87
2018-12-09T10:08:07.684Z,2.30
2018-12-09T10:10:36.267Z,2.60
2018-12-09T10:13:04.772Z,2.60
2018-12-09T10:15:33.274Z,2.40
2018-12-09T10:18:02.678Z,2.70
2018-12-09T10:20:31.454Z,2.70
2018-12-09T10:22:59.957Z,2.47
2018-12-09T10:25:28.455Z,3.00
2018-12-09T10:27:56.967Z,3.20
2018-12-09T10:30:25.627Z,3.30
2018-12-09T10:32:54.141Z,3.53
2018-12-09T10:35:23.667Z,2.53
2018-12-09T10:37:52.169Z,2.83
2018-12-09T10:40:20.705Z,2.70
2018-12-09T10:42:49.251Z,2.20
2018-12-09T10:45:17.743Z,2.73
2018-12-09T10:47:46.236Z,2.43
2018-12-09T10:50:15.079Z,2.53
2018-12-09T10:52:43.743Z,2.60
2018-12-09T10:55:12.293Z,2.87
2018-12-09T10:57:40.844Z,2.57
2018-12-09T11:00:13.624Z,2.70
2018-12-09T11:02:42.217Z,3.47
2018-12-09T11:05:11.000Z,4.23
2018-12-09T11:07:39.534Z,12.90
2018-12-09T11:10:08.383Z,11.80
2018-12-09T11:12:36.862Z,5.40
2018-12-09T11:15:05.500Z,4.83
2018-12-09T11:17:33.996Z,4.67
2018-12-09T11:20:02.538Z,4.30
2018-12-09T11:22:31.169Z,3.10
2018-12-09T11:24:59.805Z,3.07
2018-12-09T11:27:28.348Z,3.87
2018-12-09T11:29:56.863Z,3.47
2018-12-09T11:32:25.550Z,3.33
2018-12-09T11:34:54.321Z,3.80
2018-12-09T11:37:23.300Z,4.33
2018-12-09T11:39:51.945Z,4.73
2018-12-09T11:42:20.497Z,4.77
2018-12-09T11:44:48.991Z,4.67
2018-12-09T11:47:17.738Z,3.67
2018-12-09T11:49:46.448Z,3.63
2018-12-09T11:52:15.442Z,4.97
2018-12-09T11:54:44.305Z,4.97
2018-12-09T11:57:13.929Z,5.10
2018-12-09T11:59:45.876Z,4.07
2018-12-09T12:02:20.066Z,3.37
2018-12-09T12:04:46.731Z,3.80
2018-12-09T12:07:16.233Z,3.83
2018-12-09T12:09:45.542Z,3.87
2018-12-09T12:12:15.551Z,3.70
2018-12-09T12:14:45.551Z,4.10
2018-12-09T12:17:14.465Z,4.30
2018-12-09T12:19:43.067Z,4.00
2018-12-09T12:22:12.477Z,4.70
2018-12-09T12:24:41.881Z,6.20
2018-12-09T12:27:11.051Z,6.63
2018-12-09T12:29:40.000Z,7.87
2018-12-09T12:32:11.009Z,8.20
2018-12-09T12:34:40.225Z,8.40
2018-12-09T12:37:11.945Z,8.40
2018-12-09T12:39:41.062Z,8.43
2018-12-09T12:42:10.043Z,8.33
2018-12-09T12:44:39.459Z,9.00
2018-12-09T12:47:08.522Z,8.20
2018-12-09T12:49:38.952Z,8.47
2018-12-09T12:52:08.504Z,6.77
2018-12-09T12:54:38.575Z,7.00
2018-12-09T12:57:07.357Z,11.10
2018-12-09T12:59:36.689Z,8.60
2018-12-09T13:02:07.213Z,8.20
2018-12-09T13:04:36.181Z,6.83
2018-12-09T13:07:05.071Z,7.90
2018-12-09T13:09:34.704Z,8.20
2018-12-09T13:12:04.084Z,6.10
2018-12-09T13:14:38.916Z,6.60
2018-12-09T13:17:08.210Z,6.03
2018-12-09T13:19:37.101Z,6.37
2018-12-09T13:22:08.435Z,7.60
2018-12-09T13:24:45.734Z,7.30
2018-12-09T13:27:15.968Z,6.40
2018-12-09T13:29:45.378Z,7.20
2018-12-09T13:32:16.080Z,6.30
2018-12-09T13:34:47.132Z,6.87
2018-12-09T13:37:16.892Z,7.40
2018-12-09T13:39:46.107Z,10.87
2018-12-09T13:42:14.989Z,12.67
2018-12-09T13:44:43.775Z,13.00
2018-12-09T13:47:12.862Z,15.93
2018-12-09T13:49:42.360Z,15.37
2018-12-09T13:52:11.415Z,15.47
2018-12-09T13:54:40.129Z,14.23
2018-12-09T13:57:08.671Z,9.43
2018-12-09T13:59:37.203Z,10.60
2018-12-09T14:02:06.505Z,11.20
2018-12-09T14:04:35.459Z,10.77
2018-12-09T14:07:04.216Z,10.50
2018-12-09T14:09:33.385Z,9.90
2018-12-09T14:12:01.926Z,13.23
2018-12-09T14:14:30.457Z,13.80
2018-12-09T14:16:59.203Z,13.70
2018-12-09T14:19:27.893Z,17.37
2018-12-09T14:21:56.473Z,15.33
2018-12-09T14:24:25.525Z,14.30
2018-12-09T14:26:54.015Z,16.57
2018-12-09T14:29:24.865Z,15.93
2018-12-09T14:31:53.866Z,14.77
2018-12-09T14:34:22.513Z,14.90
2018-12-09T14:36:51.051Z,17.27
2018-12-09T14:39:19.563Z,18.97
2018-12-09T14:41:48.231Z,19.83
2018-12-09T14:44:17.778Z,24.07
2018-12-09T14:46:46.397Z,23.43
2018-12-09T14:49:14.945Z,20.07
2018-12-09T14:51:44.280Z,20.00
2018-12-09T14:54:12.782Z,24.03
2018-12-09T14:56:41.363Z,26.87
2018-12-09T14:59:11.125Z,27.17
2018-12-09T15:01:40.693Z,25.97
2018-12-09T15:04:10.520Z,24.33
2018-12-09T15:06:39.734Z,26.50
2018-12-09T15:09:20.918Z,30.20
2018-12-09T15:11:50.283Z,29.13
2018-12-09T15:14:18.891Z,18.13
2018-12-09T15:16:47.420Z,28.07
2018-12-09T15:19:15.931Z,21.77
2018-12-09T15:21:45.410Z,23.13
2018-12-09T15:24:13.956Z,26.90
2018-12-09T15:26:42.526Z,29.47
2018-12-09T15:29:17.230Z,34.27
2018-12-09T15:31:45.847Z,29.60
2018-12-09T15:34:14.362Z,25.37
2018-12-09T15:36:43.747Z,24.20
2018-12-09T15:39:12.645Z,19.40
2018-12-09T15:41:41.342Z,20.00
2018-12-09T15:44:09.909Z,18.00
2018-12-09T15:46:38.688Z,17.37
2018-12-09T15:49:07.231Z,18.87
2018-12-09T15:51:35.982Z,22.07
2018-12-09T15:54:04.794Z,27.57
2018-12-09T15:56:33.278Z,29.30
2018-12-09T15:59:02.445Z,31.67
2018-12-09T16:01:31.000Z,29.27
2018-12-09T16:03:59.477Z,26.43
2018-12-09T16:06:28.447Z,24.67
2018-12-09T16:08:57.006Z,27.30
2018-12-09T16:11:25.504Z,29.53
2018-12-09T16:13:54.121Z,28.13
2018-12-09T16:16:22.599Z,25.40
2018-12-09T16:18:51.973Z,27.63
2018-12-09T16:21:20.533Z,28.13
2018-12-09T16:23:49.302Z,35.17
2018-12-09T16:26:18.010Z,28.07
2018-12-09T16:28:46.640Z,25.37
2018-12-09T16:31:15.329Z,25.00
2018-12-09T16:33:43.912Z,27.00
2018-12-09T16:36:12.529Z,26.10
2018-12-09T16:38:41.164Z,26.87
2018-12-09T16:41:09.733Z,25.43
2018-12-09T16:43:38.250Z,26.07
2018-12-09T16:46:07.067Z,23.53
2018-12-09T16:48:35.955Z,24.03
2018-12-09T16:51:04.842Z,27.93
2018-12-09T16:53:33.512Z,26.50
2018-12-09T16:56:02.149Z,27.67
2018-12-09T16:58:31.254Z,26.23
2018-12-09T17:00:59.997Z,23.80
2018-12-09T17:03:28.734Z,25.00
2018-12-09T17:05:57.726Z,25.13
2018-12-09T17:08:26.472Z,26.87
2018-12-09T17:10:55.265Z,22.73
2018-12-09T17:13:23.944Z,18.47
2018-12-09T17:15:52.477Z,18.30
2018-12-09T17:18:21.094Z,21.80
2018-12-09T17:20:49.872Z,24.20
2018-12-09T17:23:18.449Z,18.03
2018-12-09T17:25:47.145Z,21.30
2018-12-09T17:28:16.183Z,18.37
2018-12-09T17:30:45.153Z,15.93
2018-12-09T17:33:14.092Z,20.77
2018-12-09T17:35:43.089Z,18.97
2018-12-09T17:38:11.820Z,17.93
2018-12-09T17:40:40.377Z,18.27
2018-12-09T17:43:09.066Z,17.13
2018-12-09T17:45:37.550Z,18.13
2018-12-09T17:48:06.340Z,19.83
2018-12-09T17:50:34.868Z,19.93
2018-12-09T17:53:05.719Z,20.87
2018-12-09T17:55:35.213Z,36.33
2018-12-09T17:58:03.814Z,41.00
2018-12-09T18:00:32.553Z,25.17
2018-12-09T18:03:01.475Z,29.40
2018-12-09T18:05:30.127Z,31.33
2018-12-09T18:07:58.712Z,29.63
2018-12-09T18:10:27.812Z,27.07
2018-12-09T18:12:56.349Z,30.23
2018-12-09T18:15:26.058Z,38.67
2018-12-09T18:17:54.582Z,37.00
2018-12-09T18:20:23.151Z,32.00
2018-12-09T18:22:51.656Z,34.37
2018-12-09T18:25:20.196Z,40.97
2018-12-09T18:27:48.726Z,40.70
2018-12-09T18:30:17.195Z,44.47
2018-12-09T18:32:45.875Z,46.87
2018-12-09T18:35:14.475Z,39.90
2018-12-09T18:37:43.348Z,38.93
2018-12-09T18:40:11.950Z,38.77
2018-12-09T18:42:40.939Z,35.53
2018-12-09T18:45:10.052Z,39.63
2018-12-09T18:47:38.810Z,45.87
2018-12-09T18:50:07.436Z,46.40
2018-12-09T18:52:36.014Z,45.50
2018-12-09T18:55:05.977Z,42.07
2018-12-09T18:57:34.514Z,36.50
2018-12-09T19:00:04.328Z,36.07
2018-12-09T19:02:32.970Z,32.10
2018-12-09T19:05:02.036Z,29.33
2018-12-09T19:07:30.557Z,30.70
2018-12-09T19:09:59.646Z,34.97
2018-12-09T19:12:28.316Z,34.73
2018-12-09T19:14:58.134Z,34.33
2018-12-09T19:17:27.530Z,38.10
2018-12-09T19:19:56.558Z,32.93
2018-12-09T19:22:25.424Z,31.87
2018-12-09T19:24:54.078Z,29.57
2018-12-09T19:27:22.905Z,26.90
2018-12-09T19:29:51.492Z,27.10
2018-12-09T19:32:20.105Z,28.93
2018-12-09T19:34:49.010Z,30.53
2018-12-09T19:37:18.882Z,28.43
2018-12-09T19:39:47.402Z,28.27
2018-12-09T19:42:17.087Z,29.93
2018-12-09T19:44:46.753Z,26.40
2018-12-09T19:47:15.249Z,23.77
2018-12-09T19:49:44.064Z,24.93
2018-12-09T19:52:14.961Z,24.03
2018-12-09T19:54:43.533Z,23.17
2018-12-09T19:57:13.024Z,23.87
2018-12-09T19:59:42.289Z,18.10
2018-12-09T20:02:11.517Z,21.87
2018-12-09T20:04:40.790Z,17.90
2018-12-09T20:07:09.817Z,15.97
2018-12-09T20:09:38.767Z,13.57
2018-12-09T20:12:08.104Z,13.83
2018-12-09T20:14:36.640Z,14.47
2018-12-09T20:17:05.649Z,14.17
2018-12-09T20:19:34.138Z,12.30
2018-12-09T20:22:02.877Z,10.23
2018-12-09T20:24:31.411Z,9.80
2018-12-09T20:27:00.095Z,9.93
2018-12-09T20:29:29.143Z,11.17
2018-12-09T20:31:57.703Z,9.90
2018-12-09T20:34:26.441Z,10.70
2018-12-09T20:36:56.009Z,12.17
2018-12-09T20:39:24.713Z,11.60
2018-12-09T20:41:53.253Z,11.13
2018-12-09T20:44:21.830Z,9.60
2018-12-09T20:46:50.780Z,9.70
2018-12-09T20:49:19.345Z,10.47
2018-12-09T20:51:47.945Z,10.10
2018-12-09T20:54:16.583Z,10.03
2018-12-09T20:56:45.524Z,10.50
2018-12-09T20:59:14.301Z,10.10
2018-12-09T21:01:43.640Z,11.77
2018-12-09T21:04:12.232Z,10.20
2018-12-09T21:06:40.773Z,11.53
2018-12-09T21:09:09.490Z,9.73
2018-12-09T21:11:39.142Z,9.20
2018-12-09T21:14:07.773Z,9.10
2018-12-09T21:16:36.352Z,10.30
2018-12-09T21:19:05.011Z,10.47
2018-12-09T21:21:33.509Z,10.47
2018-12-09T21:24:02.649Z,11.10
2018-12-09T21:26:32.049Z,10.90
2018-12-09T21:29:01.261Z,11.60
2018-12-09T21:31:30.219Z,11.33
2018-12-09T21:33:58.813Z,12.03
2018-12-09T21:36:27.407Z,11.87
2018-12-09T21:38:55.925Z,12.00
2018-12-09T21:41:24.728Z,11.53
2018-12-09T21:43:53.415Z,11.47
2018-12-09T21:46:22.433Z,11.63
2018-12-09T21:48:51.401Z,12.63
2018-12-09T21:51:20.300Z,15.17
2018-12-09T21:53:49.084Z,13.53
2018-12-09T21:56:17.938Z,13.20
2018-12-09T21:58:46.498Z,13.57
2018-12-09T22:01:15.048Z,12.53
2018-12-09T22:03:43.708Z,12.43
2018-12-09T22:06:12.356Z,13.27
2018-12-09T22:08:41.144Z,13.87
2018-12-09T22:11:09.679Z,13.30
2018-12-09T22:13:38.340Z,13.90
2018-12-09T22:16:07.059Z,15.10
2018-12-09T22:18:35.600Z,15.10
2018-12-09T22:21:04.140Z,15.23
2018-12-09T22:23:34.128Z,17.47
2018-12-09T22:26:02.693Z,17.83
2018-12-09T22:28:31.497Z,13.40
2018-12-09T22:31:00.288Z,14.23
2018-12-09T22:33:28.847Z,13.17
2018-12-09T22:35:58.581Z,13.17
2018-12-09T22:38:27.159Z,13.57
2018-12-09T22:40:55.744Z,13.43
2018-12-09T22:43:24.395Z,14.07
2018-12-09T22:45:52.935Z,15.90
2018-12-09T22:48:21.805Z,15.83
2018-12-09T22:50:50.598Z,13.80
2018-12-09T22:53:19.155Z,12.07
2018-12-09T22:55:47.833Z,12.33
2018-12-09T22:58:16.482Z,12.43
2018-12-09T23:01:21.381Z,12.53
2018-12-09T23:03:51.118Z,12.83
2018-12-09T23:06:19.893Z,13.97
2018-12-09T23:08:48.786Z,12.07
2018-12-09T23:11:17.866Z,13.73
2018-12-09T23:13:46.872Z,13.53
2018-12-09T23:16:16.891Z,13.90
2018-12-09T23:18:49.490Z,13.33
2018-12-09T23:21:19.608Z,14.13
2018-12-09T23:23:50.510Z,16.33
2018-12-09T23:26:19.621Z,21.77
2018-12-09T23:28:48.401Z,17.90
2018-12-09T23:31:17.284Z,15.77
2018-12-09T23:33:46.359Z,16.43
2018-12-09T23:36:16.784Z,16.33
2018-12-09T23:38:45.800Z,17.07
2018-12-09T23:41:14.549Z,18.67
2018-12-09T23:43:43.582Z,18.10
2018-12-09T23:46:12.173Z,18.10
2018-12-09T23:48:41.770Z,17.90
2018-12-09T23:51:10.760Z,19.00
2018-12-09T23:53:40.018Z,18.90
2018-12-09T23:56:10.002Z,18.47
2018-12-09T23:58:38.982Z,18.57
